createdAt,value
2022-08-10T00:01:34.260Z,4.60
2022-08-10T00:04:01.293Z,5.60
2022-08-10T00:06:28.153Z,5.57
2022-08-10T00:08:54.907Z,5.17
2022-08-10T00:11:21.804Z,5.43
2022-08-10T00:13:48.473Z,4.87
2022-08-10T00:16:15.189Z,5.40
2022-08-10T00:18:41.899Z,5.50
2022-08-10T00:21:09.717Z,5.10
2022-08-10T00:23:37.298Z,4.80
2022-08-10T00:26:05.652Z,5.20
2022-08-10T00:28:33.239Z,4.53
2022-08-10T00:31:00.198Z,5.23
2022-08-10T00:33:26.882Z,5.10
2022-08-10T00:35:53.504Z,5.47
2022-08-10T00:38:20.151Z,5.73
2022-08-10T00:40:46.810Z,5.60
2022-08-10T00:43:13.491Z,6.10
2022-08-10T00:45:40.323Z,6.80
2022-08-10T00:48:07.246Z,4.83
2022-08-10T00:50:34.389Z,4.60
2022-08-10T00:53:01.496Z,5.00
2022-08-10T00:55:28.416Z,5.13
2022-08-10T00:57:55.848Z,5.90
2022-08-10T01:00:23.838Z,5.17
2022-08-10T01:02:50.954Z,5.60
2022-08-10T01:05:20.147Z,5.50
2022-08-10T01:08:15.256Z,5.03
2022-08-10T01:11:05.966Z,5.10
2022-08-10T01:14:13.743Z,5.40
2022-08-10T01:16:55.031Z,5.23
2022-08-10T01:19:52.880Z,4.73
2022-08-10T01:22:37.502Z,5.57
2022-08-10T01:25:21.267Z,4.77
2022-08-10T01:28:12.119Z,5.63
2022-08-10T01:30:39.846Z,5.50
2022-08-10T01:33:31.650Z,6.00
2022-08-10T01:36:10.014Z,5.40
2022-08-10T01:38:40.938Z,5.30
2022-08-10T01:41:12.022Z,4.90
2022-08-10T01:43:54.101Z,5.53
2022-08-10T01:46:24.086Z,5.90
2022-08-10T01:48:56.093Z,5.50
2022-08-10T01:51:32.652Z,5.53
2022-08-10T01:54:02.990Z,5.33
2022-08-10T01:56:32.617Z,5.30
2022-08-10T01:59:04.546Z,5.30
2022-08-10T02:01:37.788Z,6.00
2022-08-10T02:04:08.159Z,6.17
2022-08-10T02:06:39.837Z,5.63
2022-08-10T02:09:07.901Z,5.20
2022-08-10T02:12:05.430Z,5.17
2022-08-10T02:14:33.441Z,5.63
2022-08-10T02:17:07.764Z,5.90
2022-08-10T02:19:38.362Z,5.83
2022-08-10T02:22:35.144Z,5.90
2022-08-10T02:24:56.036Z,5.40
2022-08-10T02:27:25.313Z,5.80
2022-08-10T02:29:53.500Z,6.00
2022-08-10T02:32:38.365Z,5.80
2022-08-10T02:35:11.363Z,5.50
2022-08-10T02:37:51.235Z,5.20
2022-08-10T02:45:01.238Z,5.80
2022-08-10T02:45:29.763Z,6.27
2022-08-10T02:46:26.433Z,5.30
2022-08-10T02:49:04.771Z,5.30
2022-08-10T02:52:07.709Z,5.80
2022-08-10T02:54:43.107Z,6.07
2022-08-10T02:57:16.490Z,5.00
2022-08-10T02:59:46.457Z,5.93
2022-08-10T03:02:32.455Z,5.90
2022-08-10T03:05:08.208Z,5.23
2022-08-10T03:08:00.639Z,6.30
2022-08-10T03:10:30.659Z,5.83
2022-08-10T03:13:05.124Z,6.10
2022-08-10T03:15:34.331Z,6.00
2022-08-10T03:18:02.602Z,5.10
2022-08-10T03:20:36.533Z,6.17
2022-08-10T03:23:11.081Z,5.80
2022-08-10T03:25:39.019Z,6.17
2022-08-10T03:28:06.939Z,5.70
2022-08-10T03:30:35.008Z,6.03
2022-08-10T03:33:05.256Z,5.50
2022-08-10T03:35:32.585Z,5.63
2022-08-10T03:38:00.731Z,5.67
2022-08-10T03:40:32.267Z,6.20
2022-08-10T03:43:17.238Z,5.53
2022-08-10T03:45:55.406Z,6.07
2022-08-10T03:48:44.631Z,5.53
2022-08-10T03:51:16.446Z,6.37
2022-08-10T03:54:05.093Z,6.30
2022-08-10T03:56:33.001Z,6.10
2022-08-10T03:59:01.231Z,5.70
2022-08-10T04:02:43.693Z,4.77
2022-08-10T04:04:20.857Z,5.57
2022-08-10T04:06:51.297Z,5.87
2022-08-10T04:09:21.178Z,6.13
2022-08-10T04:11:47.836Z,5.10
2022-08-10T04:14:38.205Z,5.87
2022-08-10T04:17:01.241Z,5.93
2022-08-10T04:19:29.761Z,5.30
2022-08-10T04:22:13.640Z,5.40
2022-08-10T04:24:42.702Z,5.77
2022-08-10T04:27:09.816Z,5.80
2022-08-10T04:29:36.790Z,6.00
2022-08-10T04:32:04.518Z,6.47
2022-08-10T04:34:32.422Z,5.70
2022-08-10T04:37:09.225Z,5.53
2022-08-10T04:39:36.489Z,5.73
2022-08-10T04:42:03.847Z,5.13
2022-08-10T04:44:30.961Z,5.17
2022-08-10T04:46:59.398Z,5.20
2022-08-10T04:49:53.854Z,5.73
2022-08-10T04:52:14.068Z,6.20
2022-08-10T04:54:40.747Z,5.50
2022-08-10T04:57:08.880Z,5.10
2022-08-10T04:59:39.763Z,6.23
2022-08-10T05:02:30.043Z,5.60
2022-08-10T05:04:54.107Z,5.23
2022-08-10T05:07:20.776Z,5.83
2022-08-10T05:10:01.082Z,6.60
2022-08-10T05:12:37.707Z,5.67
2022-08-10T05:15:06.439Z,5.67
2022-08-10T05:17:34.621Z,6.20
2022-08-10T05:20:06.503Z,5.50
2022-08-10T05:22:40.744Z,5.80
2022-08-10T05:25:16.107Z,5.67
2022-08-10T05:27:43.767Z,5.50
2022-08-10T05:30:13.721Z,5.17
2022-08-10T05:32:58.235Z,5.73
2022-08-10T05:35:27.285Z,5.57
2022-08-10T05:38:11.629Z,5.50
2022-08-10T05:40:46.644Z,5.10
2022-08-10T05:43:19.489Z,5.63
2022-08-10T05:46:19.267Z,4.87
2022-08-10T05:48:54.602Z,5.40
2022-08-10T05:51:23.197Z,5.20
2022-08-10T05:54:01.748Z,4.30
2022-08-10T05:56:56.214Z,4.30
2022-08-10T06:00:35.327Z,4.43
2022-08-10T06:02:41.704Z,4.13
2022-08-10T06:05:05.549Z,4.67
2022-08-10T06:07:35.135Z,3.70
2022-08-10T06:10:02.656Z,3.73
2022-08-10T06:12:53.373Z,4.20
2022-08-10T06:15:21.618Z,4.03
2022-08-10T06:18:07.650Z,4.13
2022-08-10T06:20:36.231Z,3.43
2022-08-10T06:23:06.115Z,3.57
2022-08-10T06:26:10.410Z,3.87
2022-08-10T06:28:20.846Z,3.60
2022-08-10T06:30:49.148Z,3.37
2022-08-10T06:33:17.112Z,3.90
2022-08-10T06:35:44.679Z,4.03
2022-08-10T06:38:12.612Z,3.83
2022-08-10T06:40:45.727Z,3.97
2022-08-10T06:43:16.959Z,3.80
2022-08-10T06:46:07.762Z,3.60
2022-08-10T06:48:41.464Z,3.77
2022-08-10T06:51:15.262Z,3.73
2022-08-10T06:53:53.269Z,3.93
2022-08-10T06:56:35.989Z,4.20
2022-08-10T06:59:21.960Z,3.87
2022-08-10T07:01:57.334Z,3.17
2022-08-10T07:04:34.886Z,3.87
2022-08-10T07:07:05.003Z,3.13
2022-08-10T07:09:34.835Z,3.20
2022-08-10T07:12:08.544Z,3.00
2022-08-10T07:14:42.402Z,3.03
2022-08-10T07:17:15.683Z,3.20
2022-08-10T07:19:50.133Z,3.40
2022-08-10T07:23:01.305Z,3.60
2022-08-10T07:25:10.797Z,3.00
2022-08-10T07:27:58.833Z,2.80
2022-08-10T07:30:30.459Z,3.07
2022-08-10T07:32:58.588Z,3.13
2022-08-10T07:35:28.951Z,3.03
2022-08-10T07:37:59.075Z,2.73
2022-08-10T07:40:26.370Z,2.53
2022-08-10T07:42:57.969Z,3.07
2022-08-10T07:45:28.949Z,3.10
2022-08-10T07:48:06.657Z,2.70
2022-08-10T07:50:38.026Z,2.50
2022-08-10T07:53:07.043Z,2.50
2022-08-10T07:56:04.416Z,2.70
2022-08-10T07:58:27.248Z,2.80
2022-08-10T08:01:07.016Z,2.20
2022-08-10T08:03:34.406Z,2.37
2022-08-10T08:06:05.527Z,3.23
2022-08-10T08:08:42.086Z,2.30
2022-08-10T08:11:10.270Z,2.67
2022-08-10T08:13:55.026Z,2.57
2022-08-10T08:16:24.460Z,2.33
2022-08-10T08:19:26.752Z,2.23
2022-08-10T08:24:06.549Z,2.00
2022-08-10T08:24:34.882Z,2.33
2022-08-10T08:27:03.924Z,2.37
2022-08-10T08:29:36.258Z,3.47
2022-08-10T08:32:04.651Z,2.37
2022-08-10T08:34:37.450Z,2.67
2022-08-10T08:37:08.804Z,2.70
2022-08-10T08:39:37.073Z,2.27
2022-08-10T08:42:38.396Z,2.43
2022-08-10T08:45:17.309Z,2.07
2022-08-10T08:48:11.217Z,2.30
2022-08-10T08:51:04.645Z,2.50
2022-08-10T08:54:02.122Z,2.20
2022-08-10T08:56:45.751Z,2.23
2022-08-10T08:59:41.371Z,2.10
2022-08-10T09:02:37.375Z,1.67
2022-08-10T09:05:58.802Z,2.10
2022-08-10T09:08:57.693Z,1.40
2022-08-10T09:12:02.199Z,1.50
2022-08-10T09:14:33.367Z,1.60
2022-08-10T09:17:11.966Z,2.13
2022-08-10T09:20:17.028Z,1.70
2022-08-10T09:22:50.474Z,2.10
2022-08-10T09:25:26.079Z,2.00
2022-08-10T09:28:00.611Z,2.30
2022-08-10T09:30:38.203Z,1.83
2022-08-10T09:36:23.691Z,1.80
2022-08-10T09:36:36.387Z,2.90
2022-08-10T09:40:56.785Z,1.70
2022-08-10T09:42:05.850Z,2.10
2022-08-10T09:45:09.824Z,2.03
2022-08-10T09:48:03.033Z,1.77
2022-08-10T09:51:22.389Z,2.10
2022-08-10T09:53:55.933Z,2.20
2022-08-10T09:56:32.387Z,1.80
2022-08-10T09:59:56.746Z,2.20
2022-08-10T10:02:48.861Z,2.10
2022-08-10T10:05:18.421Z,1.80
2022-08-10T10:07:53.809Z,1.80
2022-08-10T10:10:29.795Z,2.00
2022-08-10T10:13:20.151Z,2.07
2022-08-10T10:16:14.399Z,2.17
2022-08-10T10:19:23.878Z,2.37
2022-08-10T10:22:07.656Z,2.30
2022-08-10T10:24:48.002Z,1.77
2022-08-10T10:27:32.606Z,1.80
2022-08-10T10:30:11.409Z,1.93
2022-08-10T10:32:59.444Z,1.70
2022-08-10T10:35:43.619Z,1.90
2022-08-10T10:38:13.273Z,1.80
2022-08-10T10:41:07.070Z,1.70
2022-08-10T10:44:02.563Z,2.10
2022-08-10T10:46:36.821Z,2.00
2022-08-10T10:49:31.163Z,1.90
2022-08-10T10:52:12.601Z,2.53
2022-08-10T10:55:08.084Z,1.83
2022-08-10T10:58:01.145Z,1.70
2022-08-10T11:00:43.721Z,1.47
2022-08-10T11:03:38.290Z,1.97
2022-08-10T11:06:40.502Z,2.10
2022-08-10T11:10:05.517Z,1.63
2022-08-10T11:12:19.752Z,1.87
2022-08-10T11:15:08.855Z,1.80
2022-08-10T11:18:15.667Z,1.80
2022-08-10T11:21:00.738Z,1.90
2022-08-10T11:24:47.943Z,1.73
2022-08-10T11:26:50.641Z,2.20
2022-08-10T11:29:32.121Z,2.10
2022-08-10T11:32:20.625Z,1.67
2022-08-10T11:35:23.756Z,2.10
2022-08-10T11:38:32.337Z,2.10
2022-08-10T11:42:12.332Z,2.10
2022-08-10T11:44:13.906Z,1.60
2022-08-10T11:46:50.623Z,1.60
2022-08-10T11:49:33.604Z,2.13
2022-08-10T11:52:10.577Z,1.90
2022-08-10T11:54:58.986Z,2.00
2022-08-10T11:57:54.780Z,1.73
2022-08-10T12:00:19.733Z,1.80
2022-08-10T12:02:53.455Z,2.43
2022-08-10T12:05:52.574Z,1.80
2022-08-10T12:10:07.218Z,2.20
2022-08-10T12:11:06.714Z,1.73
2022-08-10T12:14:22.747Z,1.93
2022-08-10T12:16:54.721Z,1.80
2022-08-10T12:19:31.186Z,1.93
2022-08-10T12:22:23.064Z,2.00
2022-08-10T12:24:57.800Z,1.90
2022-08-10T12:27:50.135Z,1.77
2022-08-10T12:30:19.710Z,2.17
2022-08-10T12:33:20.772Z,2.13
2022-08-10T12:36:19.074Z,1.90
2022-08-10T12:39:13.725Z,1.50
2022-08-10T12:41:55.302Z,1.90
2022-08-10T12:44:57.730Z,2.07
2022-08-10T12:47:44.829Z,1.93
2022-08-10T12:50:33.749Z,1.97
2022-08-10T12:53:11.122Z,1.90
2022-08-10T12:55:38.784Z,1.93
2022-08-10T12:58:57.627Z,2.30
2022-08-10T13:01:15.706Z,1.90
2022-08-10T13:04:20.582Z,1.80
2022-08-10T13:06:35.644Z,1.97
2022-08-10T13:09:14.536Z,1.80
2022-08-10T13:12:38.777Z,2.10
2022-08-10T13:14:47.824Z,2.30
2022-08-10T13:17:21.033Z,2.10
2022-08-10T13:19:55.096Z,2.50
2022-08-10T13:22:27.279Z,2.20
2022-08-10T13:24:56.313Z,2.33
2022-08-10T13:28:03.331Z,1.80
2022-08-10T13:30:33.879Z,2.43
2022-08-10T13:33:08.667Z,2.20
2022-08-10T13:35:37.416Z,2.20
2022-08-10T13:38:06.929Z,2.13
2022-08-10T13:40:34.720Z,2.57
2022-08-10T13:43:05.478Z,2.73
2022-08-10T13:45:33.651Z,2.57
2022-08-10T13:48:22.218Z,2.23
2022-08-10T13:50:51.753Z,2.47
2022-08-10T13:53:20.179Z,2.23
2022-08-10T13:55:55.368Z,2.40
2022-08-10T13:58:35.883Z,2.13
2022-08-10T14:01:17.170Z,1.93
2022-08-10T14:03:45.767Z,2.10
2022-08-10T14:06:15.391Z,1.90
2022-08-10T14:08:50.225Z,2.00
2022-08-10T14:11:19.688Z,2.70
2022-08-10T14:13:54.991Z,2.20
2022-08-10T14:16:23.240Z,2.03
2022-08-10T14:18:52.504Z,2.73
2022-08-10T14:21:19.559Z,2.47
2022-08-10T14:23:53.082Z,2.57
2022-08-10T14:26:30.543Z,2.40
2022-08-10T14:29:07.603Z,2.50
2022-08-10T14:31:37.022Z,2.40
2022-08-10T14:34:08.868Z,2.30
2022-08-10T14:36:46.022Z,2.60
2022-08-10T14:39:23.390Z,3.77
2022-08-10T14:42:03.398Z,2.03
2022-08-10T14:44:48.769Z,2.67
2022-08-10T14:47:51.313Z,2.50
2022-08-10T14:50:08.081Z,2.60
2022-08-10T14:52:44.442Z,2.80
2022-08-10T14:55:19.848Z,2.60
2022-08-10T14:58:19.154Z,2.67
2022-08-10T15:00:43.151Z,2.50
2022-08-10T15:04:01.890Z,2.40
2022-08-10T15:06:06.912Z,2.30
2022-08-10T15:08:37.055Z,2.57
2022-08-10T15:11:04.936Z,2.70
2022-08-10T15:13:34.323Z,2.80
2022-08-10T15:16:13.739Z,2.70
2022-08-10T15:18:58.703Z,3.23
2022-08-10T15:21:39.153Z,2.60
2022-08-10T15:24:40.847Z,2.80
2022-08-10T15:27:09.506Z,2.40
2022-08-10T15:29:57.614Z,2.50
2022-08-10T15:32:54.070Z,2.30
2022-08-10T15:35:42.602Z,2.47
2022-08-10T15:38:10.544Z,2.30
2022-08-10T15:40:51.933Z,2.30
2022-08-10T15:43:25.301Z,2.70
2022-08-10T15:45:59.888Z,2.90
2022-08-10T15:48:32.430Z,3.10
2022-08-10T15:51:05.875Z,2.27
2022-08-10T15:53:50.587Z,2.37
2022-08-10T15:56:38.780Z,2.20
2022-08-10T15:59:10.774Z,2.80
2022-08-10T16:02:12.489Z,2.40
2022-08-10T16:04:50.407Z,2.37
2022-08-10T16:07:24.503Z,2.93
2022-08-10T16:10:25.921Z,2.53
2022-08-10T16:13:00.643Z,2.50
2022-08-10T16:15:30.025Z,2.27
2022-08-10T16:18:14.186Z,2.53
2022-08-10T16:20:54.940Z,3.07
2022-08-10T16:23:29.740Z,2.03
2022-08-10T16:26:04.611Z,2.40
2022-08-10T16:28:55.054Z,2.70
2022-08-10T16:31:24.901Z,2.27
2022-08-10T16:33:56.390Z,3.37
2022-08-10T16:36:32.000Z,2.50
2022-08-10T16:38:59.592Z,2.60
2022-08-10T16:42:04.994Z,2.27
2022-08-10T16:44:18.338Z,2.33
2022-08-10T16:46:46.272Z,2.97
2022-08-10T16:49:17.891Z,2.70
2022-08-10T16:51:49.089Z,2.63
2022-08-10T16:54:27.324Z,2.63
2022-08-10T16:57:02.037Z,2.33
2022-08-10T16:59:32.198Z,2.33
2022-08-10T17:02:00.976Z,2.37
2022-08-10T17:04:30.560Z,2.97
2022-08-10T17:07:00.612Z,2.80
2022-08-10T17:09:30.403Z,2.30
2022-08-10T17:11:59.187Z,2.50
2022-08-10T17:14:29.964Z,2.60
2022-08-10T17:17:02.128Z,2.63
2022-08-10T17:19:34.340Z,2.63
2022-08-10T17:22:07.151Z,2.50
2022-08-10T17:24:40.327Z,2.93
2022-08-10T17:28:05.151Z,2.97
2022-08-10T17:30:04.894Z,3.10
2022-08-10T17:32:45.452Z,2.37
2022-08-10T17:35:23.066Z,2.33
2022-08-10T17:37:57.942Z,2.23
2022-08-10T17:40:28.417Z,2.20
2022-08-10T17:42:56.144Z,2.30
2022-08-10T17:45:47.467Z,2.70
2022-08-10T17:48:13.490Z,2.50
2022-08-10T17:50:42.592Z,2.50
2022-08-10T17:53:22.260Z,2.50
2022-08-10T17:55:54.969Z,2.20
2022-08-10T17:58:25.091Z,2.57
2022-08-10T18:00:56.318Z,2.83
2022-08-10T18:03:49.326Z,3.23
2022-08-10T18:06:17.708Z,2.90
2022-08-10T18:08:57.694Z,2.67
2022-08-10T18:11:28.906Z,2.63
2022-08-10T18:14:03.169Z,2.37
2022-08-10T18:16:33.971Z,2.33
2022-08-10T18:19:09.424Z,2.83
2022-08-10T18:21:47.072Z,2.43
2022-08-10T18:24:19.423Z,2.13
2022-08-10T18:26:49.505Z,2.80
2022-08-10T18:29:22.719Z,2.70
2022-08-10T18:31:56.237Z,2.90
2022-08-10T18:34:25.702Z,2.37
2022-08-10T18:36:54.032Z,2.63
2022-08-10T18:39:28.056Z,3.60
2022-08-10T18:42:12.796Z,3.87
2022-08-10T18:44:47.240Z,3.30
2022-08-10T18:47:27.700Z,2.30
2022-08-10T18:50:24.579Z,2.53
2022-08-10T18:53:15.274Z,2.60
2022-08-10T18:55:46.405Z,2.90
2022-08-10T18:59:02.514Z,3.20
2022-08-10T19:01:47.178Z,2.90
2022-08-10T19:04:38.631Z,2.83
2022-08-10T19:07:35.977Z,3.07
2022-08-10T19:10:13.790Z,3.00
2022-08-10T19:13:00.562Z,7.13
2022-08-10T19:15:42.639Z,3.67
2022-08-10T19:18:38.406Z,3.00
2022-08-10T19:21:20.946Z,3.13
2022-08-10T19:24:22.338Z,3.20
2022-08-10T19:27:07.552Z,2.70
2022-08-10T19:30:08.859Z,2.87
2022-08-10T19:33:02.266Z,3.27
2022-08-10T19:36:03.616Z,3.50
2022-08-10T19:38:50.787Z,4.83
2022-08-10T19:41:32.536Z,5.40
2022-08-10T19:44:14.520Z,6.70
2022-08-10T19:46:49.020Z,7.40
2022-08-10T19:49:42.492Z,5.50
2022-08-10T19:52:39.359Z,3.03
2022-08-10T19:55:17.411Z,5.50
2022-08-10T19:57:56.650Z,3.30
2022-08-10T20:00:29.590Z,3.03
2022-08-10T20:03:12.269Z,3.43
2022-08-10T20:06:18.127Z,3.63
2022-08-10T20:08:50.326Z,3.60
2022-08-10T20:11:46.321Z,3.67
2022-08-10T20:14:48.284Z,4.37
2022-08-10T20:17:45.117Z,4.17
2022-08-10T20:20:37.811Z,4.00
2022-08-10T20:23:05.861Z,3.80
2022-08-10T20:25:33.569Z,3.97
2022-08-10T20:28:24.471Z,3.23
2022-08-10T20:31:22.055Z,3.80
2022-08-10T20:34:08.877Z,3.40
2022-08-10T20:36:47.367Z,3.33
2022-08-10T20:39:30.588Z,3.27
2022-08-10T20:42:03.912Z,3.87
2022-08-10T20:44:52.127Z,4.13
2022-08-10T20:47:54.023Z,3.90
2022-08-10T20:50:48.148Z,4.23
2022-08-10T20:53:17.403Z,4.30
2022-08-10T20:55:59.099Z,3.27
2022-08-10T20:58:47.056Z,3.87
2022-08-10T21:02:06.767Z,3.20
2022-08-10T21:04:44.344Z,4.37
2022-08-10T21:08:01.082Z,3.10
2022-08-10T21:10:40.746Z,4.40
2022-08-10T21:13:26.454Z,3.70
2022-08-10T21:16:32.094Z,3.67
2022-08-10T21:19:26.796Z,3.97
2022-08-10T21:22:16.550Z,4.40
2022-08-10T21:24:52.276Z,4.10
2022-08-10T21:27:42.280Z,3.67
2022-08-10T21:30:19.519Z,3.50
2022-08-10T21:33:18.440Z,3.27
2022-08-10T21:35:58.280Z,3.30
2022-08-10T21:38:38.123Z,3.10
2022-08-10T21:41:56.671Z,4.03
2022-08-10T21:45:11.627Z,3.73
2022-08-10T21:48:30.064Z,3.43
2022-08-10T21:51:24.207Z,3.30
2022-08-10T21:57:58.786Z,3.93
2022-08-10T22:00:44.589Z,4.20
2022-08-10T22:06:52.403Z,3.70
2022-08-10T22:09:44.342Z,3.53
2022-08-10T22:12:32.404Z,3.70
2022-08-10T22:16:03.917Z,3.63
2022-08-10T22:19:01.875Z,4.07
2022-08-10T22:21:56.303Z,4.40
2022-08-10T22:25:16.482Z,3.50
2022-08-10T22:28:07.563Z,3.77
2022-08-10T22:31:27.114Z,3.30
2022-08-10T22:31:29.054Z,3.23
2022-08-10T22:34:34.158Z,4.13
2022-08-10T22:37:54.558Z,4.23
2022-08-10T22:40:42.693Z,3.83
2022-08-10T22:43:44.824Z,3.83
2022-08-10T22:46:44.271Z,3.97
2022-08-10T22:49:11.051Z,3.53
2022-08-10T22:52:02.561Z,4.33
2022-08-10T22:55:00.004Z,4.00
2022-08-10T22:57:46.454Z,3.67
2022-08-10T23:00:18.802Z,3.93
2022-08-10T23:03:02.725Z,4.37
2022-08-10T23:05:40.461Z,4.70
2022-08-10T23:08:30.617Z,4.00
2022-08-10T23:11:04.158Z,3.50
2022-08-10T23:13:38.841Z,4.17
2022-08-10T23:16:32.017Z,4.30
2022-08-10T23:19:11.295Z,4.30
2022-08-10T23:22:04.877Z,4.00
2022-08-10T23:24:44.924Z,3.90
2022-08-10T23:27:39.700Z,3.97
2022-08-10T23:30:09.166Z,4.80
2022-08-10T23:32:40.639Z,4.23
2022-08-10T23:36:30.660Z,4.10
2022-08-10T23:38:05.649Z,3.90
2022-08-10T23:40:33.448Z,3.73
2022-08-10T23:43:02.240Z,3.70
2022-08-10T23:45:52.287Z,4.13
2022-08-10T23:48:23.582Z,4.20
2022-08-10T23:50:58.512Z,3.50
2022-08-10T23:53:31.068Z,4.80
2022-08-10T23:56:04.415Z,4.43
2022-08-10T23:58:35.338Z,4.40
